sensor_id;sensor_type;location;lat;lon;timestamp;temperature;humidity
13320;DHT22;59599;47.608;12.190;2022-12-20T05:04:25;1.00;99.90
13320;DHT22;59599;47.608;12.190;2022-12-20T05:06:50;0.90;99.90
13320;DHT22;59599;47.608;12.190;2022-12-20T05:24:12;1.00;99.90
13320;DHT22;59599;47.608;12.190;2022-12-20T05:26:56;0.80;99.90
13320;DHT22;59599;47.608;12.190;2022-12-20T05:29:21;0.80;99.90
13320;DHT22;59599;47.608;12.190;2022-12-20T05:31:47;0.70;99.90
13320;DHT22;59599;47.608;12.190;2022-12-20T05:36:38;0.80;99.90
13320;DHT22;59599;47.608;12.190;2022-12-20T06:01:03;0.70;99.90
13320;DHT22;59599;47.608;12.190;2022-12-20T06:10:48;0.50;99.90
13320;DHT22;59599;47.608;12.190;2022-12-20T06:20:33;0.60;99.90
13320;DHT22;59599;47.608;12.190;2022-12-20T06:30:18;0.90;99.90
13320;DHT22;59599;47.608;12.190;2022-12-20T06:40:05;0.90;99.90
13320;DHT22;59599;47.608;12.190;2022-12-20T06:44:57;1.00;99.90
13320;DHT22;59599;47.608;12.190;2022-12-20T07:04:25;0.80;99.90
13320;DHT22;59599;47.608;12.190;2022-12-20T07:23:56;1.00;99.90
13320;DHT22;59599;47.608;12.190;2022-12-20T07:36:09;1.00;99.90
13320;DHT22;59599;47.608;12.190;2022-12-20T07:41:14;1.10;99.90
13320;DHT22;59599;47.608;12.190;2022-12-20T07:46:07;1.20;99.90
13320;DHT22;59599;47.608;12.190;2022-12-20T07:51:13;1.20;99.90
13320;DHT22;59599;47.608;12.190;2022-12-20T07:53:43;1.30;99.90
13320;DHT22;59599;47.608;12.190;2022-12-20T07:58:38;1.40;99.90
13320;DHT22;59599;47.608;12.190;2022-12-20T08:03:37;1.50;99.90
13320;DHT22;59599;47.608;12.190;2022-12-20T08:06:05;1.50;99.90
13320;DHT22;59599;47.608;12.190;2022-12-20T08:08:32;1.30;99.90
13320;DHT22;59599;47.608;12.190;2022-12-20T08:15:51;1.50;99.90
13320;DHT22;59599;47.608;12.190;2022-12-20T08:28:00;1.60;99.90
13320;DHT22;59599;47.608;12.190;2022-12-20T08:45:04;1.60;99.90
13320;DHT22;59599;47.608;12.190;2022-12-20T09:02:05;2.10;99.90
13320;DHT22;59599;47.608;12.190;2022-12-20T09:14:15;2.30;99.90
13320;DHT22;59599;47.608;12.190;2022-12-20T09:21:33;2.40;99.90
13320;DHT22;59599;47.608;12.190;2022-12-20T09:23:59;2.50;99.90
13320;DHT22;59599;47.608;12.190;2022-12-20T09:31:19;2.80;99.90
13320;DHT22;59599;47.608;12.190;2022-12-20T09:36:12;2.70;99.90
13320;DHT22;59599;47.608;12.190;2022-12-20T09:38:38;2.70;99.90
13320;DHT22;59599;47.608;12.190;2022-12-20T09:41:06;2.70;99.90
13320;DHT22;59599;47.608;12.190;2022-12-20T09:46:00;2.90;99.90
13320;DHT22;59599;47.608;12.190;2022-12-20T09:59:09;3.30;99.90
13320;DHT22;59599;47.608;12.190;2022-12-20T10:01:36;3.30;99.90
13320;DHT22;59599;47.608;12.190;2022-12-20T10:04:13;4.70;99.90
13320;DHT22;59599;47.608;12.190;2022-12-20T10:17:15;3.60;99.90
13320;DHT22;59599;47.608;12.190;2022-12-20T10:22:41;3.70;99.90
13320;DHT22;59599;47.608;12.190;2022-12-20T10:25:16;3.80;99.90
13320;DHT22;59599;47.608;12.190;2022-12-20T10:27:44;3.70;99.90
13320;DHT22;59599;47.608;12.190;2022-12-20T10:30:17;3.70;99.90
13320;DHT22;59599;47.608;12.190;2022-12-20T10:32:52;3.70;99.90
13320;DHT22;59599;47.608;12.190;2022-12-20T10:35:29;3.70;99.90
13320;DHT22;59599;47.608;12.190;2022-12-20T10:38:04;3.70;99.90
13320;DHT22;59599;47.608;12.190;2022-12-20T10:40:38;3.70;99.90
13320;DHT22;59599;47.608;12.190;2022-12-20T10:43:16;3.60;99.90
13320;DHT22;59599;47.608;12.190;2022-12-20T10:45:44;3.60;99.90
13320;DHT22;59599;47.608;12.190;2022-12-20T10:48:31;3.60;99.90
13320;DHT22;59599;47.608;12.190;2022-12-20T10:53:23;3.60;99.90
13320;DHT22;59599;47.608;12.190;2022-12-20T10:55:50;4.80;99.90
13320;DHT22;59599;47.608;12.190;2022-12-20T11:01:25;3.60;99.90
13320;DHT22;59599;47.608;12.190;2022-12-20T11:04:06;3.70;99.90
13320;DHT22;59599;47.608;12.190;2022-12-20T11:12:12;3.90;99.90
13320;DHT22;59599;47.608;12.190;2022-12-20T11:14:40;3.90;99.90
13320;DHT22;59599;47.608;12.190;2022-12-20T11:17:18;4.00;99.90
13320;DHT22;59599;47.608;12.190;2022-12-20T11:19:58;4.00;99.90
13320;DHT22;59599;47.608;12.190;2022-12-20T11:25:26;4.30;99.90
13320;DHT22;59599;47.608;12.190;2022-12-20T11:30:42;4.50;99.90
13320;DHT22;59599;47.608;12.190;2022-12-20T11:36:10;4.70;99.90
13320;DHT22;59599;47.608;12.190;2022-12-20T11:49:57;4.90;99.90
13320;DHT22;59599;47.608;12.190;2022-12-20T11:52:38;4.80;99.90
13320;DHT22;59599;47.608;12.190;2022-12-20T11:57:41;4.90;99.90
13320;DHT22;59599;47.608;12.190;2022-12-20T12:00:12;5.20;99.90
13320;DHT22;59599;47.608;12.190;2022-12-20T12:02:47;5.30;99.90
13320;DHT22;59599;47.608;12.190;2022-12-20T12:05:25;5.40;99.90
13320;DHT22;59599;47.608;12.190;2022-12-20T12:08:00;5.40;99.90
13320;DHT22;59599;47.608;12.190;2022-12-20T12:10:35;5.40;99.90
13320;DHT22;59599;47.608;12.190;2022-12-20T12:13:14;5.30;99.90
13320;DHT22;59599;47.608;12.190;2022-12-20T12:15:59;5.30;99.90
13320;DHT22;59599;47.608;12.190;2022-12-20T12:18:30;5.30;99.90
13320;DHT22;59599;47.608;12.190;2022-12-20T12:26:21;5.20;99.90
13320;DHT22;59599;47.608;12.190;2022-12-20T12:28:53;5.20;99.90
13320;DHT22;59599;47.608;12.190;2022-12-20T12:34:09;5.20;99.90
13320;DHT22;59599;47.608;12.190;2022-12-20T12:39:37;5.20;99.90
13320;DHT22;59599;47.608;12.190;2022-12-20T12:45:21;5.30;99.90
13320;DHT22;59599;47.608;12.190;2022-12-20T12:47:53;5.30;99.90
13320;DHT22;59599;47.608;12.190;2022-12-20T12:50:32;5.30;99.90
13320;DHT22;59599;47.608;12.190;2022-12-20T13:06:55;5.00;99.90
13320;DHT22;59599;47.608;12.190;2022-12-20T13:11:50;5.10;99.90
13320;DHT22;59599;47.608;12.190;2022-12-20T13:16:43;5.00;99.90
13320;DHT22;59599;47.608;12.190;2022-12-20T13:38:04;5.60;99.90
13320;DHT22;59599;47.608;12.190;2022-12-20T13:40:45;5.60;99.90
13320;DHT22;59599;47.608;12.190;2022-12-20T13:43:24;5.70;99.90
13320;DHT22;59599;47.608;12.190;2022-12-20T13:45:54;5.90;99.90
13320;DHT22;59599;47.608;12.190;2022-12-20T13:49:01;6.10;99.90
13320;DHT22;59599;47.608;12.190;2022-12-20T13:51:28;6.50;99.90
13320;DHT22;59599;47.608;12.190;2022-12-20T13:54:03;7.10;99.90
13320;DHT22;59599;47.608;12.190;2022-12-20T13:59:21;8.30;99.90
13320;DHT22;59599;47.608;12.190;2022-12-20T14:01:51;9.80;99.90
13320;DHT22;59599;47.608;12.190;2022-12-20T14:04:19;11.00;99.90
13320;DHT22;59599;47.608;12.190;2022-12-20T14:06:55;12.30;99.90
13320;DHT22;59599;47.608;12.190;2022-12-20T14:09:31;13.40;99.90
13320;DHT22;59599;47.608;12.190;2022-12-20T14:12:12;14.70;99.90
13320;DHT22;59599;47.608;12.190;2022-12-20T14:14:42;15.20;99.90
13320;DHT22;59599;47.608;12.190;2022-12-20T14:17:29;15.70;99.90
13320;DHT22;59599;47.608;12.190;2022-12-20T14:20:14;16.00;99.90
13320;DHT22;59599;47.608;12.190;2022-12-20T14:22:52;15.80;99.90
13320;DHT22;59599;47.608;12.190;2022-12-20T14:25:28;15.90;99.90
13320;DHT22;59599;47.608;12.190;2022-12-20T14:30:34;15.70;99.90
13320;DHT22;59599;47.608;12.190;2022-12-20T14:33:24;15.10;99.90
13320;DHT22;59599;47.608;12.190;2022-12-20T14:38:27;12.80;99.90
13320;DHT22;59599;47.608;12.190;2022-12-20T14:40:53;11.70;99.90
13320;DHT22;59599;47.608;12.190;2022-12-20T14:43:31;10.80;99.90
13320;DHT22;59599;47.608;12.190;2022-12-20T14:46:18;10.20;99.90
13320;DHT22;59599;47.608;12.190;2022-12-20T14:51:09;9.10;99.90
13320;DHT22;59599;47.608;12.190;2022-12-20T14:53:37;8.80;99.90
13320;DHT22;59599;47.608;12.190;2022-12-20T14:58:31;8.10;99.90
13320;DHT22;59599;47.608;12.190;2022-12-20T15:01:19;7.80;99.90
13320;DHT22;59599;47.608;12.190;2022-12-20T15:13:55;6.30;99.90
13320;DHT22;59599;47.608;12.190;2022-12-20T15:16:23;6.00;99.90
13320;DHT22;59599;47.608;12.190;2022-12-20T15:18:51;5.80;99.90
13320;DHT22;59599;47.608;12.190;2022-12-20T15:31:09;5.60;99.90
13320;DHT22;59599;47.608;12.190;2022-12-20T15:36:04;5.40;99.90
13320;DHT22;59599;47.608;12.190;2022-12-20T15:45:53;5.00;99.90
13320;DHT22;59599;47.608;12.190;2022-12-20T15:48:21;5.00;99.90
13320;DHT22;59599;47.608;12.190;2022-12-20T15:53:16;4.90;99.90
13320;DHT22;59599;47.608;12.190;2022-12-20T16:00:39;4.70;99.90
13320;DHT22;59599;47.608;12.190;2022-12-20T16:03:13;4.70;99.90
13320;DHT22;59599;47.608;12.190;2022-12-20T16:15:22;4.70;99.90
13320;DHT22;59599;47.608;12.190;2022-12-20T16:22:40;4.60;99.90
13320;DHT22;59599;47.608;12.190;2022-12-20T16:27:31;4.60;99.90
13320;DHT22;59599;47.608;12.190;2022-12-20T16:49:43;4.60;99.90
13320;DHT22;59599;47.608;12.190;2022-12-20T17:09:19;4.40;99.90
13320;DHT22;59599;47.608;12.190;2022-12-20T17:14:12;4.60;99.90
13320;DHT22;59599;47.608;12.190;2022-12-20T17:24:04;4.50;99.90
13320;DHT22;59599;47.608;12.190;2022-12-20T17:31:33;4.60;99.90
13320;DHT22;59599;47.608;12.190;2022-12-20T17:39:20;4.40;99.90
13320;DHT22;59599;47.608;12.190;2022-12-20T17:44:25;4.40;99.90
13320;DHT22;59599;47.608;12.190;2022-12-20T17:49:17;4.40;99.90
13320;DHT22;59599;47.608;12.190;2022-12-20T17:54:20;4.40;99.90
13320;DHT22;59599;47.608;12.190;2022-12-20T17:56:47;4.40;99.90
13320;DHT22;59599;47.608;12.190;2022-12-20T18:01:40;4.70;99.90
13320;DHT22;59599;47.608;12.190;2022-12-20T18:06:36;4.30;99.90
13320;DHT22;59599;47.608;12.190;2022-12-20T18:13:56;4.10;99.90
13320;DHT22;59599;47.608;12.190;2022-12-20T18:23:43;4.10;99.90
13320;DHT22;59599;47.608;12.190;2022-12-20T18:26:12;4.20;99.90
13320;DHT22;59599;47.608;12.190;2022-12-20T18:36:13;4.30;99.90
13320;DHT22;59599;47.608;12.190;2022-12-20T18:41:09;4.20;99.90
13320;DHT22;59599;47.608;12.190;2022-12-20T18:43:36;4.30;99.90
13320;DHT22;59599;47.608;12.190;2022-12-20T18:48:30;4.60;99.90
13320;DHT22;59599;47.608;12.190;2022-12-20T18:50:55;4.40;99.90
13320;DHT22;59599;47.608;12.190;2022-12-20T19:03:04;4.20;99.90
13320;DHT22;59599;47.608;12.190;2022-12-20T19:27:27;4.50;99.90
13320;DHT22;59599;47.608;12.190;2022-12-20T19:51:47;4.10;99.90
13320;DHT22;59599;47.608;12.190;2022-12-20T19:54:13;4.10;99.90
13320;DHT22;59599;47.608;12.190;2022-12-20T20:03:58;3.80;99.90
13320;DHT22;59599;47.608;12.190;2022-12-20T20:11:18;3.70;99.90
13320;DHT22;59599;47.608;12.190;2022-12-20T20:18:38;3.50;99.90
13320;DHT22;59599;47.608;12.190;2022-12-20T20:23:35;3.70;99.90
13320;DHT22;59599;47.608;12.190;2022-12-20T20:45:39;3.60;99.90
13320;DHT22;59599;47.608;12.190;2022-12-20T20:48:05;3.40;99.90
13320;DHT22;59599;47.608;12.190;2022-12-20T20:52:56;3.40;99.90
13320;DHT22;59599;47.608;12.190;2022-12-20T20:57:48;3.50;99.90
13320;DHT22;59599;47.608;12.190;2022-12-20T21:00:15;3.50;99.90
13320;DHT22;59599;47.608;12.190;2022-12-20T21:17:17;3.40;99.90
13320;DHT22;59599;47.608;12.190;2022-12-20T21:29:28;3.50;99.90
13320;DHT22;59599;47.608;12.190;2022-12-20T21:34:20;3.50;99.90
13320;DHT22;59599;47.608;12.190;2022-12-20T21:36:46;3.40;99.90
13320;DHT22;59599;47.608;12.190;2022-12-20T21:39:12;3.40;99.90
13320;DHT22;59599;47.608;12.190;2022-12-20T21:41:38;3.50;99.90
13320;DHT22;59599;47.608;12.190;2022-12-20T21:44:04;3.50;99.90
13320;DHT22;59599;47.608;12.190;2022-12-20T21:46:30;3.50;99.90
13320;DHT22;59599;47.608;12.190;2022-12-20T21:48:56;3.50;99.90
13320;DHT22;59599;47.608;12.190;2022-12-20T21:53:52;3.40;99.90
13320;DHT22;59599;47.608;12.190;2022-12-20T21:56:19;3.40;99.90
13320;DHT22;59599;47.608;12.190;2022-12-20T21:58:45;3.40;99.90
13320;DHT22;59599;47.608;12.190;2022-12-20T22:01:11;3.40;99.90
13320;DHT22;59599;47.608;12.190;2022-12-20T22:03:38;3.40;99.90
13320;DHT22;59599;47.608;12.190;2022-12-20T22:06:04;3.30;99.90
13320;DHT22;59599;47.608;12.190;2022-12-20T22:08:31;3.30;99.90
13320;DHT22;59599;47.608;12.190;2022-12-20T22:11:02;3.30;99.90
13320;DHT22;59599;47.608;12.190;2022-12-20T22:13:29;3.20;99.90
13320;DHT22;59599;47.608;12.190;2022-12-20T22:18:22;3.30;99.90
13320;DHT22;59599;47.608;12.190;2022-12-20T22:23:14;3.40;99.90
13320;DHT22;59599;47.608;12.190;2022-12-20T22:25:39;3.50;99.90
13320;DHT22;59599;47.608;12.190;2022-12-20T22:30:32;3.50;99.90
13320;DHT22;59599;47.608;12.190;2022-12-20T22:32:57;3.50;99.90
13320;DHT22;59599;47.608;12.190;2022-12-20T22:37:52;3.20;99.90
13320;DHT22;59599;47.608;12.190;2022-12-20T22:42:44;3.20;99.90
13320;DHT22;59599;47.608;12.190;2022-12-20T22:47:35;3.30;99.90
